Time;durP1;ratioP1;P1;durP2;ratioP2;P2;SDS_P1;SDS_P2;PMS_P1;PMS_P2;Temp;Humidity;BMP_temperature;BMP_pressure;BME280_temperature;BME280_humidity;BME280_pressure;Samples;Min_cycle;Max_cycle;Signal;HPM_P1;HPM_P2
2023/11/12 00:01:11;;;;;;;;;;;2.70;99.90;;;;;;21171366;27;19922;-76
2023/11/12 00:11:11;;;;;;;;;;;2.60;99.90;;;;;;21166152;28;20014;-76
2023/11/12 00:21:12;;;;;;;;;;;2.50;99.90;;;;;;21166164;28;19936;-76
2023/11/12 00:31:13;;;;;;;;;;;2.70;99.90;;;;;;21196107;27;19916;-76
2023/11/12 00:41:17;;;;;;;;;;;3.00;99.90;;;;;;21248055;27;19926;-77
2023/11/12 00:51:17;;;;;;;;;;;3.00;99.90;;;;;;21241102;27;19911;-77
2023/11/12 01:01:19;;;;;;;;;;;2.90;99.90;;;;;;21250460;27;20385;-76
2023/11/12 01:11:19;;;;;;;;;;;2.90;99.90;;;;;;21243814;27;19926;-76
2023/11/12 01:21:20;;;;;;;;;;;2.50;99.90;;;;;;21245519;27;19923;-76
2023/11/12 01:31:21;;;;;;;;;;;2.50;99.90;;;;;;21244979;27;19969;-77
2023/11/12 01:41:21;;;;;;;;;;;2.50;99.90;;;;;;21244278;27;19916;-77
2023/11/12 01:51:24;;;;;;;;;;;2.30;99.90;;;;;;21241298;27;20299;-77
2023/11/12 02:01:25;;;;;;;;;;;2.40;99.90;;;;;;21239498;27;19922;-77
2023/11/12 02:11:28;;;;;;;;;;;2.40;99.90;;;;;;21240096;27;19916;-77
2023/11/12 02:21:32;;;;;;;;;;;2.40;99.90;;;;;;21239159;27;19919;-77
2023/11/12 02:31:33;;;;;;;;;;;2.40;99.90;;;;;;21279612;27;19938;-77
2023/11/12 02:41:37;;;;;;;;;;;2.40;99.90;;;;;;21324904;27;19915;-76
2023/11/12 02:51:38;;;;;;;;;;;2.60;99.90;;;;;;21336748;27;19911;-76
2023/11/12 03:01:39;;;;;;;;;;;2.60;99.90;;;;;;21345772;27;19915;-76
2023/11/12 03:11:40;;;;;;;;;;;2.60;99.90;;;;;;21319555;27;19914;-75
2023/11/12 03:21:49;;;;;;;;;;;2.60;99.90;;;;;;21325222;27;19973;-76
2023/11/12 03:31:50;;;;;;;;;;;2.60;99.90;;;;;;21223530;27;19954;-76
2023/11/12 03:41:51;;;;;;;;;;;2.70;99.90;;;;;;21163514;28;20019;-76
2023/11/12 03:51:52;;;;;;;;;;;2.70;99.90;;;;;;21168209;28;19943;-77
2023/11/12 04:01:52;;;;;;;;;;;2.70;99.90;;;;;;21172498;27;20276;-76
2023/11/12 04:11:53;;;;;;;;;;;2.70;99.90;;;;;;21166282;28;20015;-75
2023/11/12 04:21:54;;;;;;;;;;;2.70;99.90;;;;;;21155199;28;20536;-77
2023/11/12 04:31:54;;;;;;;;;;;2.70;99.90;;;;;;21202780;27;19915;-76
2023/11/12 04:41:55;;;;;;;;;;;2.70;99.90;;;;;;21246796;27;19923;-76
2023/11/12 04:51:56;;;;;;;;;;;2.60;99.90;;;;;;21247360;27;19915;-76
2023/11/12 05:01:57;;;;;;;;;;;2.50;99.90;;;;;;21240217;27;19919;-76
2023/11/12 05:11:57;;;;;;;;;;;2.60;99.90;;;;;;21247020;27;19912;-76
2023/11/12 05:21:59;;;;;;;;;;;2.70;99.90;;;;;;21242218;27;19919;-77
2023/11/12 05:31:59;;;;;;;;;;;2.80;99.90;;;;;;21201728;27;19916;-76
2023/11/12 05:42:01;;;;;;;;;;;2.80;99.90;;;;;;21154973;28;20003;-79
2023/11/12 05:52:02;;;;;;;;;;;2.90;99.90;;;;;;21158720;28;19911;-76
2023/11/12 06:02:03;;;;;;;;;;;2.90;99.90;;;;;;21160426;27;19962;-77
2023/11/12 06:12:05;;;;;;;;;;;2.90;99.90;;;;;;21157429;28;19912;-77
2023/11/12 06:22:05;;;;;;;;;;;2.90;99.90;;;;;;21156855;28;19965;-77
2023/11/12 06:32:06;;;;;;;;;;;3.00;99.90;;;;;;21237301;27;20309;-76
2023/11/12 06:42:08;;;;;;;;;;;3.00;99.90;;;;;;21324297;27;19922;-77
2023/11/12 06:52:10;;;;;;;;;;;3.00;99.90;;;;;;21332691;27;19911;-76
2023/11/12 07:02:10;;;;;;;;;;;3.10;99.90;;;;;;21335195;27;19915;-76
2023/11/12 07:12:11;;;;;;;;;;;3.10;99.90;;;;;;21345220;27;19917;-77
2023/11/12 07:22:12;;;;;;;;;;;3.20;99.90;;;;;;21327461;27;19919;-77
2023/11/12 07:32:12;;;;;;;;;;;3.20;99.90;;;;;;21333030;27;20014;-78
2023/11/12 07:42:13;;;;;;;;;;;3.20;99.90;;;;;;21318668;27;20273;-78
2023/11/12 07:52:13;;;;;;;;;;;3.30;99.90;;;;;;21326645;27;19911;-78
2023/11/12 08:02:14;;;;;;;;;;;3.40;99.90;;;;;;21362717;27;20294;-77
2023/11/12 08:12:16;;;;;;;;;;;3.50;99.90;;;;;;21337371;27;19950;-78
2023/11/12 08:22:16;;;;;;;;;;;3.50;99.90;;;;;;21340105;27;20030;-78
2023/11/12 08:32:17;;;;;;;;;;;3.60;99.90;;;;;;21341424;27;19958;-78
2023/11/12 08:42:18;;;;;;;;;;;3.60;99.90;;;;;;21341001;27;19923;-79
2023/11/12 08:52:19;;;;;;;;;;;3.70;99.90;;;;;;21346363;27;20289;-79
2023/11/12 09:02:19;;;;;;;;;;;3.70;99.90;;;;;;21379595;27;19915;-79
2023/11/12 09:12:20;;;;;;;;;;;3.70;99.90;;;;;;21344694;27;19919;-79
2023/11/12 09:22:21;;;;;;;;;;;3.60;99.90;;;;;;21318187;27;20366;-79
2023/11/12 09:32:25;;;;;;;;;;;3.40;99.90;;;;;;21344884;27;19946;-79
2023/11/12 09:42:27;;;;;;;;;;;2.90;99.90;;;;;;21330002;27;19919;-79
2023/11/12 09:52:27;;;;;;;;;;;2.50;99.90;;;;;;21309435;27;19921;-78
2023/11/12 10:02:30;;;;;;;;;;;2.20;99.90;;;;;;21347768;27;19946;-78
2023/11/12 10:12:31;;;;;;;;;;;2.10;99.90;;;;;;21343725;27;20290;-80
2023/11/12 10:22:39;;;;;;;;;;;1.80;99.90;;;;;;21326177;27;19919;-79
2023/11/12 10:32:39;;;;;;;;;;;1.70;99.90;;;;;;21314469;27;20407;-78
2023/11/12 10:42:40;;;;;;;;;;;1.60;99.90;;;;;;21317947;27;19937;-79
2023/11/12 10:52:42;;;;;;;;;;;1.60;99.90;;;;;;21351382;27;19936;-79
2023/11/12 11:02:44;;;;;;;;;;;1.50;99.90;;;;;;21352639;27;19915;-78
2023/11/12 11:12:45;;;;;;;;;;;1.30;99.90;;;;;;21347311;27;20345;-78
2023/11/12 11:22:46;;;;;;;;;;;1.20;99.90;;;;;;21344777;27;19915;-78
2023/11/12 11:32:57;;;;;;;;;;;1.10;99.90;;;;;;21322451;27;19915;-79
2023/11/12 11:43:16;;;;;;;;;;;1.20;99.90;;;;;;21340436;27;20339;-78
2023/11/12 11:53:17;;;;;;;;;;;1.20;99.90;;;;;;21346889;27;20285;-79
2023/11/12 12:03:20;;;;;;;;;;;1.20;99.90;;;;;;21349873;27;19922;-78
2023/11/12 12:13:22;;;;;;;;;;;1.20;99.90;;;;;;21345643;27;19922;-77
2023/11/12 12:23:24;;;;;;;;;;;1.20;99.90;;;;;;21347992;27;20367;-78
2023/11/12 12:33:25;;;;;;;;;;;1.40;99.90;;;;;;21329875;27;20002;-78
2023/11/12 12:43:26;;;;;;;;;;;1.40;99.90;;;;;;21312769;27;20015;-78
2023/11/12 12:53:27;;;;;;;;;;;1.40;99.90;;;;;;21331203;27;19976;-77
2023/11/12 13:03:30;;;;;;;;;;;1.50;99.90;;;;;;21328994;27;19919;-78
2023/11/12 13:13:31;;;;;;;;;;;1.50;99.90;;;;;;21328745;27;19942;-78
2023/11/12 13:23:32;;;;;;;;;;;1.70;99.90;;;;;;21332990;27;19915;-77
2023/11/12 13:33:33;;;;;;;;;;;1.80;99.90;;;;;;21337116;27;19958;-77
2023/11/12 13:43:41;;;;;;;;;;;1.90;99.90;;;;;;21151424;27;19912;-81
2023/11/12 13:53:42;;;;;;;;;;;1.90;99.90;;;;;;21150054;28;20002;-81
2023/11/12 14:03:42;;;;;;;;;;;1.90;99.90;;;;;;21136400;28;20061;-80
2023/11/12 14:13:45;;;;;;;;;;;1.80;99.90;;;;;;21107039;28;20001;-81
2023/11/12 14:23:46;;;;;;;;;;;1.90;99.90;;;;;;21063000;28;20368;-81
2023/11/12 14:33:46;;;;;;;;;;;2.00;99.90;;;;;;21059277;28;20323;-81
2023/11/12 14:43:48;;;;;;;;;;;2.10;99.90;;;;;;21058425;28;19923;-82
2023/11/12 14:53:48;;;;;;;;;;;2.10;99.90;;;;;;21010763;28;19913;-81
2023/11/12 15:03:49;;;;;;;;;;;2.00;99.90;;;;;;21003137;28;19919;-81
2023/11/12 15:13:51;;;;;;;;;;;2.10;99.90;;;;;;21001484;28;19913;-82
2023/11/12 15:23:53;;;;;;;;;;;2.20;99.90;;;;;;21001660;28;19912;-82
2023/11/12 15:33:53;;;;;;;;;;;2.20;99.90;;;;;;20983398;28;19912;-81
2023/11/12 15:43:55;;;;;;;;;;;2.20;99.90;;;;;;20999552;28;19951;-83
2023/11/12 15:53:55;;;;;;;;;;;2.20;99.90;;;;;;20997958;28;19913;-82
2023/11/12 16:03:56;;;;;;;;;;;2.30;99.90;;;;;;20979527;28;19913;-83
2023/11/12 16:13:57;;;;;;;;;;;2.20;99.90;;;;;;21049373;28;20485;-81
2023/11/12 16:23:57;;;;;;;;;;;2.30;99.90;;;;;;21064476;28;19916;-83
2023/11/12 16:33:59;;;;;;;;;;;2.30;99.90;;;;;;21081610;28;20015;-81
2023/11/12 16:44:00;;;;;;;;;;;2.30;99.90;;;;;;21081660;28;19912;-82
2023/11/12 16:54:00;;;;;;;;;;;2.40;99.90;;;;;;21021798;28;20344;-84
2023/11/12 17:04:01;;;;;;;;;;;2.40;99.90;;;;;;21025755;28;20291;-85
2023/11/12 17:14:03;;;;;;;;;;;2.60;99.90;;;;;;21081113;28;20287;-83
2023/11/12 17:24:05;;;;;;;;;;;2.70;99.90;;;;;;21081470;28;19912;-83
2023/11/12 17:34:06;;;;;;;;;;;2.70;99.90;;;;;;21063776;28;19923;-85
2023/11/12 17:44:07;;;;;;;;;;;2.70;99.90;;;;;;21081248;28;19912;-86
2023/11/12 17:54:08;;;;;;;;;;;2.70;99.90;;;;;;21066019;28;19927;-87
2023/11/12 18:04:09;;;;;;;;;;;2.90;99.90;;;;;;21084152;28;19951;-85
2023/11/12 18:14:14;;;;;;;;;;;3.20;99.90;;;;;;21064526;28;20375;-83
2023/11/12 18:24:15;;;;;;;;;;;3.40;99.90;;;;;;21087614;28;19959;-85
2023/11/12 18:34:15;;;;;;;;;;;3.60;99.90;;;;;;21077055;28;19970;-85
2023/11/12 18:44:19;;;;;;;;;;;4.30;99.90;;;;;;21075748;28;19957;-83
2023/11/12 18:54:20;;;;;;;;;;;5.10;99.90;;;;;;21094255;28;19939;-83
2023/11/12 19:04:21;;;;;;;;;;;7.00;99.90;;;;;;21091126;28;19912;-82
2023/11/12 19:14:22;;;;;;;;;;;5.90;99.90;;;;;;21077933;28;20003;-86
2023/11/12 19:24:22;;;;;;;;;;;5.70;99.90;;;;;;21090782;28;19912;-82
2023/11/12 19:34:26;;;;;;;;;;;7.70;99.90;;;;;;21087549;28;19923;-83
2023/11/12 19:44:26;;;;;;;;;;;7.00;99.90;;;;;;21087469;28;19912;-83
2023/11/12 19:54:27;;;;;;;;;;;6.80;99.90;;;;;;21086876;28;19927;-82
2023/11/12 20:04:29;;;;;;;;;;;6.50;99.90;;;;;;21050158;28;19958;-82
2023/11/12 20:14:30;;;;;;;;;;;6.50;99.90;;;;;;21081915;28;19916;-83
2023/11/12 20:24:36;;;;;;;;;;;6.70;99.90;;;;;;21032988;28;19938;-83
2023/11/12 20:34:37;;;;;;;;;;;7.00;99.90;;;;;;21057825;28;19916;-84
2023/11/12 20:44:38;;;;;;;;;;;7.30;99.90;;;;;;21079640;28;19922;-84
2023/11/12 20:54:39;;;;;;;;;;;7.70;99.90;;;;;;21060554;28;20007;-84
2023/11/12 21:04:39;;;;;;;;;;;7.70;99.90;;;;;;21079144;28;19912;-83
2023/11/12 21:14:40;;;;;;;;;;;7.80;99.90;;;;;;21076452;28;19923;-81
2023/11/12 21:24:42;;;;;;;;;;;8.10;99.90;;;;;;21060084;28;19912;-83
2023/11/12 21:34:43;;;;;;;;;;;8.30;99.90;;;;;;21074595;28;19932;-81
2023/11/12 21:44:44;;;;;;;;;;;9.00;99.90;;;;;;21064065;28;20013;-82
2023/11/12 21:54:47;;;;;;;;;;;9.20;99.90;;;;;;21062156;28;19916;-84
2023/11/12 22:04:50;;;;;;;;;;;8.90;99.90;;;;;;21092296;28;19952;-80
2023/11/12 22:14:51;;;;;;;;;;;8.80;99.90;;;;;;21091086;28;19923;-84
2023/11/12 22:24:52;;;;;;;;;;;8.90;99.90;;;;;;21089789;28;19980;-83
2023/11/12 22:34:53;;;;;;;;;;;8.90;99.90;;;;;;21089020;28;19937;-82
2023/11/12 22:44:55;;;;;;;;;;;8.90;99.90;;;;;;21077687;28;20371;-86
2023/11/12 22:54:56;;;;;;;;;;;8.90;99.90;;;;;;21088780;28;19916;-83
2023/11/12 23:04:57;;;;;;;;;;;8.90;99.90;;;;;;21069183;28;19985;-83
2023/11/12 23:14:58;;;;;;;;;;;9.00;99.90;;;;;;21085319;28;19920;-81
2023/11/12 23:24:58;;;;;;;;;;;9.00;99.90;;;;;;21085522;28;19916;-83
2023/11/12 23:34:59;;;;;;;;;;;9.10;99.90;;;;;;21076249;28;20440;-83
2023/11/12 23:45:00;;;;;;;;;;;9.20;99.90;;;;;;21084274;28;20003;-84
2023/11/12 23:55:01;;;;;;;;;;;9.20;99.90;;;;;;21082392;28;20363;-81
